createdAt,value
2022-08-12T00:01:19.696Z,12.50
2022-08-12T00:04:26.392Z,12.50
2022-08-12T00:07:14.058Z,12.40
2022-08-12T00:09:59.676Z,12.30
2022-08-12T00:12:46.698Z,12.20
2022-08-12T00:18:23.403Z,12.20
2022-08-12T00:21:09.775Z,12.00
2022-08-12T00:23:56.751Z,11.90
2022-08-12T00:26:42.739Z,11.80
2022-08-12T00:29:29.791Z,11.70
2022-08-12T00:32:16.706Z,11.70
2022-08-12T00:35:36.440Z,11.70
2022-08-12T00:38:23.627Z,11.70
2022-08-12T00:41:10.547Z,11.50
2022-08-12T00:43:38.335Z,11.50
2022-08-12T00:46:25.391Z,11.50
2022-08-12T00:48:54.099Z,11.50
2022-08-12T00:51:22.421Z,11.50
2022-08-12T00:53:50.122Z,11.60
2022-08-12T00:56:20.699Z,11.50
2022-08-12T00:58:50.937Z,11.50
2022-08-12T01:01:20.353Z,11.50
2022-08-12T01:04:08.657Z,11.40
2022-08-12T01:06:55.983Z,11.40
2022-08-12T01:09:41.829Z,11.40
2022-08-12T01:12:11.886Z,11.40
2022-08-12T01:14:41.571Z,11.30
2022-08-12T01:17:10.426Z,11.30
2022-08-12T01:19:38.495Z,11.30
2022-08-12T01:22:27.212Z,11.40
2022-08-12T01:25:19.282Z,11.50
2022-08-12T01:27:50.500Z,11.50
2022-08-12T01:30:19.790Z,11.60
2022-08-12T01:32:48.865Z,11.60
2022-08-12T01:35:17.591Z,11.60
2022-08-12T01:38:04.934Z,11.70
2022-08-12T01:40:37.837Z,11.70
2022-08-12T01:43:13.551Z,11.70
2022-08-12T01:45:57.458Z,11.70
2022-08-12T01:49:02.407Z,11.60
2022-08-12T01:52:15.159Z,11.50
2022-08-12T01:54:38.551Z,11.40
2022-08-12T01:57:17.274Z,11.40
2022-08-12T02:00:13.666Z,11.30
2022-08-12T02:03:19.600Z,11.20
2022-08-12T02:06:38.370Z,11.10
2022-08-12T02:09:27.612Z,11.10
2022-08-12T02:12:16.423Z,11.00
2022-08-12T02:14:59.268Z,10.90
2022-08-12T02:17:56.835Z,10.80
2022-08-12T02:20:51.968Z,10.80
2022-08-12T02:23:28.114Z,10.80
2022-08-12T02:26:08.533Z,10.80
2022-08-12T02:28:39.467Z,10.70
2022-08-12T02:31:09.006Z,10.60
2022-08-12T02:33:38.051Z,10.60
2022-08-12T02:36:06.707Z,10.50
2022-08-12T02:38:35.996Z,10.40
2022-08-12T02:41:05.359Z,10.40
2022-08-12T02:43:41.361Z,10.30
2022-08-12T02:46:14.488Z,10.30
2022-08-12T02:48:55.254Z,10.20
2022-08-12T02:51:34.852Z,10.20
2022-08-12T02:54:06.496Z,10.10
2022-08-12T02:56:50.409Z,10.10
2022-08-12T02:59:22.313Z,10.00
2022-08-12T03:01:55.097Z,10.00
2022-08-12T03:04:43.875Z,10.00
2022-08-12T03:07:34.518Z,10.00
2022-08-12T03:10:36.767Z,9.90
2022-08-12T03:13:09.895Z,9.90
2022-08-12T03:15:37.404Z,9.90
2022-08-12T03:18:28.769Z,10.00
2022-08-12T03:20:57.483Z,10.00
2022-08-12T03:23:29.270Z,9.90
2022-08-12T03:26:02.047Z,9.90
2022-08-12T03:28:50.748Z,9.90
2022-08-12T03:31:22.886Z,9.90
2022-08-12T03:34:01.549Z,9.80
2022-08-12T03:36:36.214Z,9.80
2022-08-12T03:39:18.986Z,9.80
2022-08-12T03:42:12.220Z,9.80
2022-08-12T03:45:24.274Z,9.80
2022-08-12T03:48:19.416Z,9.70
2022-08-12T03:51:07.193Z,9.80
2022-08-12T03:53:54.400Z,9.80
2022-08-12T03:56:40.641Z,9.80
2022-08-12T03:59:27.435Z,9.90
2022-08-12T04:01:58.762Z,9.80
2022-08-12T04:04:35.602Z,9.70
2022-08-12T04:07:09.504Z,9.70
2022-08-12T04:09:42.988Z,9.60
2022-08-12T04:12:32.622Z,9.50
2022-08-12T04:15:02.401Z,9.40
2022-08-12T04:17:31.257Z,9.50
2022-08-12T04:19:59.694Z,9.50
2022-08-12T04:22:30.825Z,9.40
2022-08-12T04:25:02.648Z,9.40
2022-08-12T04:27:32.438Z,9.40
2022-08-12T04:30:16.476Z,9.40
2022-08-12T04:32:50.939Z,9.30
2022-08-12T04:35:21.020Z,9.40
2022-08-12T04:37:58.000Z,9.30
2022-08-12T04:40:32.792Z,9.30
2022-08-12T04:43:03.392Z,9.30
2022-08-12T04:45:34.738Z,9.30
2022-08-12T04:48:02.953Z,9.30
2022-08-12T04:50:35.836Z,9.40
2022-08-12T04:53:07.956Z,9.40
2022-08-12T04:55:38.831Z,9.60
2022-08-12T04:58:08.219Z,9.60
2022-08-12T05:00:38.107Z,9.70
2022-08-12T05:03:06.767Z,9.80
2022-08-12T05:05:36.892Z,9.90
2022-08-12T05:08:04.783Z,9.90
2022-08-12T05:10:35.259Z,10.00
2022-08-12T05:13:18.780Z,10.10
2022-08-12T05:16:04.954Z,10.30
2022-08-12T05:18:39.476Z,10.40
2022-08-12T05:21:10.723Z,10.60
2022-08-12T05:23:40.388Z,10.70
2022-08-12T05:26:08.976Z,10.80
2022-08-12T05:28:37.768Z,11.00
2022-08-12T05:31:05.675Z,11.10
2022-08-12T05:33:40.062Z,11.50
2022-08-12T05:36:13.834Z,12.00
2022-08-12T05:38:58.190Z,12.50
2022-08-12T05:41:35.278Z,12.70
2022-08-12T05:44:06.743Z,12.80
2022-08-12T05:46:36.656Z,12.90
2022-08-12T05:49:05.754Z,13.10
2022-08-12T05:51:40.109Z,13.30
2022-08-12T05:54:09.709Z,13.50
2022-08-12T05:56:37.765Z,13.50
2022-08-12T05:59:09.647Z,13.60
2022-08-12T06:02:10.418Z,13.70
2022-08-12T06:04:26.007Z,13.90
2022-08-12T06:06:53.778Z,13.90
2022-08-12T06:09:22.918Z,14.00
2022-08-12T06:12:04.204Z,14.00
2022-08-12T06:14:36.415Z,14.10
2022-08-12T06:17:05.678Z,14.20
2022-08-12T06:20:28.201Z,14.40
2022-08-12T06:22:21.738Z,14.50
2022-08-12T06:24:49.921Z,14.70
2022-08-12T06:27:19.395Z,14.70
2022-08-12T06:30:09.806Z,14.80
2022-08-12T06:32:35.434Z,14.80
2022-08-12T06:35:27.335Z,14.80
2022-08-12T06:37:57.793Z,14.90
2022-08-12T06:40:44.428Z,15.10
2022-08-12T06:43:14.252Z,15.20
2022-08-12T06:45:49.550Z,15.30
2022-08-12T06:48:17.821Z,15.40
2022-08-12T06:50:46.587Z,15.60
2022-08-12T06:53:14.664Z,15.80
2022-08-12T06:55:57.582Z,15.90
2022-08-12T06:58:28.860Z,15.90
2022-08-12T07:00:59.048Z,16.10
2022-08-12T07:03:28.834Z,16.20
2022-08-12T07:06:04.831Z,16.30
2022-08-12T07:08:35.254Z,16.50
2022-08-12T07:11:10.020Z,16.60
2022-08-12T07:14:02.546Z,16.80
2022-08-12T07:16:51.840Z,16.90
2022-08-12T07:19:20.788Z,17.30
2022-08-12T07:21:59.477Z,17.50
2022-08-12T07:24:31.064Z,17.60
2022-08-12T07:26:59.398Z,17.80
2022-08-12T07:29:59.401Z,18.10
2022-08-12T07:32:16.590Z,18.70
2022-08-12T07:34:44.577Z,19.80
2022-08-12T07:37:12.945Z,20.80
2022-08-12T07:39:50.719Z,21.50
2022-08-12T07:42:29.832Z,22.00
2022-08-12T07:44:59.126Z,22.30
2022-08-12T07:47:27.459Z,22.80
2022-08-12T07:50:05.745Z,23.30
2022-08-12T07:52:39.435Z,23.30
2022-08-12T07:55:08.283Z,23.60
2022-08-12T07:57:49.498Z,23.70
2022-08-12T08:00:18.491Z,24.20
2022-08-12T08:02:46.709Z,24.40
2022-08-12T08:05:16.252Z,24.40
2022-08-12T08:07:44.772Z,24.60
2022-08-12T08:10:13.750Z,24.60
2022-08-12T08:12:53.857Z,24.20
2022-08-12T08:15:44.494Z,24.40
2022-08-12T08:18:26.952Z,24.40
2022-08-12T08:20:56.435Z,24.20
2022-08-12T08:23:46.745Z,24.40
2022-08-12T08:26:24.872Z,24.80
2022-08-12T08:28:53.270Z,24.40
2022-08-12T08:31:21.540Z,24.90
2022-08-12T08:34:09.082Z,25.20
2022-08-12T08:36:39.457Z,25.50
2022-08-12T08:39:08.699Z,25.80
2022-08-12T08:42:15.965Z,25.20
2022-08-12T08:44:43.475Z,25.00
2022-08-12T08:47:12.994Z,25.00
2022-08-12T08:49:41.704Z,25.00
2022-08-12T08:52:11.611Z,24.90
2022-08-12T08:54:40.575Z,24.60
2022-08-12T08:57:08.961Z,24.80
2022-08-12T08:59:36.498Z,25.50
2022-08-12T09:02:04.943Z,25.90
2022-08-12T09:05:13.511Z,25.50
2022-08-12T09:07:51.842Z,25.60
2022-08-12T09:10:30.471Z,26.00
2022-08-12T09:16:08.097Z,26.10
2022-08-12T09:18:35.954Z,25.80
2022-08-12T09:21:06.248Z,26.00
2022-08-12T09:24:00.313Z,25.90
2022-08-12T09:26:28.382Z,25.80
2022-08-12T09:28:58.456Z,25.60
2022-08-12T09:32:02.683Z,25.20
2022-08-12T09:34:27.834Z,25.60
2022-08-12T09:37:19.661Z,25.70
2022-08-12T09:40:01.347Z,25.10
2022-08-12T09:43:10.928Z,25.30
2022-08-12T09:46:11.977Z,25.30
2022-08-12T09:48:24.589Z,25.40
2022-08-12T09:50:55.486Z,25.20
2022-08-12T09:53:36.455Z,25.10
2022-08-12T09:57:00.128Z,25.00
2022-08-12T09:59:01.705Z,24.90
2022-08-12T10:01:35.604Z,26.10
2022-08-12T10:04:19.105Z,26.40
2022-08-12T10:06:54.128Z,26.60
2022-08-12T10:09:28.570Z,26.40
2022-08-12T10:12:53.554Z,26.40
2022-08-12T10:16:02.773Z,26.30
2022-08-12T10:18:07.873Z,26.90
2022-08-12T10:20:36.119Z,26.60
2022-08-12T10:23:03.512Z,26.20
2022-08-12T10:26:34.022Z,26.00
2022-08-12T10:29:02.998Z,26.30
2022-08-12T10:32:19.959Z,26.60
2022-08-12T10:34:26.620Z,26.80
2022-08-12T10:36:58.608Z,27.30
2022-08-12T10:40:00.164Z,26.90
2022-08-12T10:42:46.296Z,26.90
2022-08-12T10:45:18.091Z,26.80
2022-08-12T10:48:07.132Z,27.60
2022-08-12T10:51:02.480Z,27.20
2022-08-12T10:53:44.151Z,27.10
2022-08-12T10:56:15.491Z,26.40
2022-08-12T10:58:45.991Z,26.80
2022-08-12T11:03:01.489Z,27.20
2022-08-12T11:04:32.103Z,26.90
2022-08-12T11:07:10.202Z,27.10
2022-08-12T11:10:01.089Z,27.70
2022-08-12T11:12:56.458Z,27.60
2022-08-12T11:15:33.075Z,27.60
2022-08-12T11:18:12.090Z,28.40
2022-08-12T11:20:48.367Z,28.20
2022-08-12T11:23:25.362Z,28.50
2022-08-12T11:26:07.165Z,28.00
2022-08-12T11:28:36.892Z,27.60
2022-08-12T11:31:09.910Z,27.70
2022-08-12T11:34:06.770Z,28.10
2022-08-12T11:36:29.476Z,28.60
2022-08-12T11:39:04.110Z,28.00
2022-08-12T11:41:34.656Z,27.70
2022-08-12T11:44:29.180Z,27.20
2022-08-12T11:46:54.654Z,26.80
2022-08-12T11:49:31.189Z,26.50
2022-08-12T11:52:04.487Z,26.90
2022-08-12T11:54:51.493Z,28.00
2022-08-12T11:58:14.432Z,28.10
2022-08-12T12:02:56.034Z,28.00
2022-08-12T12:05:28.554Z,28.30
2022-08-12T12:08:38.950Z,28.80
2022-08-12T12:10:59.393Z,28.30
2022-08-12T12:14:07.415Z,28.00
2022-08-12T12:16:14.758Z,27.60
2022-08-12T12:18:42.833Z,27.50
2022-08-12T12:21:11.154Z,28.20
2022-08-12T12:23:40.755Z,28.50
2022-08-12T12:26:35.194Z,27.90
2022-08-12T12:29:05.737Z,28.10
2022-08-12T12:32:09.982Z,27.80
2022-08-12T12:34:32.655Z,27.90
2022-08-12T12:37:02.281Z,26.80
2022-08-12T12:39:29.908Z,26.00
2022-08-12T12:42:49.768Z,25.10
2022-08-12T12:45:19.749Z,25.00
2022-08-12T12:48:02.439Z,26.50
2022-08-12T12:50:45.045Z,27.40
2022-08-12T12:54:07.771Z,29.00
2022-08-12T12:56:21.171Z,29.60
2022-08-12T12:59:06.282Z,29.60
2022-08-12T13:01:38.311Z,29.80
2022-08-12T13:04:12.315Z,29.20
2022-08-12T13:06:41.927Z,28.50
2022-08-12T13:09:13.292Z,29.50
2022-08-12T13:11:41.959Z,29.70
2022-08-12T13:14:28.925Z,29.60
2022-08-12T13:17:03.214Z,29.80
2022-08-12T13:19:42.352Z,30.60
2022-08-12T13:22:19.022Z,30.50
2022-08-12T13:24:51.986Z,29.60
2022-08-12T13:27:34.921Z,28.90
2022-08-12T13:30:10.977Z,29.80
2022-08-12T13:32:43.445Z,29.10
2022-08-12T13:36:05.901Z,28.70
2022-08-12T13:38:35.523Z,29.00
2022-08-12T13:41:11.207Z,28.90
2022-08-12T13:43:41.419Z,29.00
2022-08-12T13:46:13.631Z,28.50
2022-08-12T13:48:44.886Z,28.80
2022-08-12T13:51:14.331Z,30.10
2022-08-12T13:53:58.157Z,31.30
2022-08-12T13:56:35.062Z,31.50
2022-08-12T13:59:07.989Z,30.40
2022-08-12T14:01:40.487Z,29.20
2022-08-12T14:04:11.734Z,28.00
2022-08-12T14:06:40.744Z,27.00
2022-08-12T14:09:15.679Z,27.60
2022-08-12T14:11:59.216Z,28.60
2022-08-12T14:14:31.474Z,29.10
2022-08-12T14:17:10.377Z,29.70
2022-08-12T14:19:48.790Z,30.10
2022-08-12T14:22:21.069Z,29.40
2022-08-12T14:24:53.937Z,29.40
2022-08-12T14:28:04.769Z,29.10
2022-08-12T14:30:24.170Z,29.60
2022-08-12T14:33:03.326Z,30.60
2022-08-12T14:35:34.044Z,30.80
2022-08-12T14:38:26.134Z,30.60
2022-08-12T14:40:58.307Z,30.50
2022-08-12T14:43:44.222Z,29.70
2022-08-12T14:46:21.618Z,28.20
2022-08-12T14:48:54.995Z,27.30
2022-08-12T14:52:56.006Z,26.70
2022-08-12T14:57:19.270Z,26.00
2022-08-12T15:00:10.258Z,25.80
2022-08-12T15:02:40.040Z,26.00
2022-08-12T15:05:08.114Z,26.30
2022-08-12T15:07:50.102Z,26.30
2022-08-12T15:10:31.517Z,26.20
2022-08-12T15:13:07.092Z,26.00
2022-08-12T15:15:43.983Z,25.60
2022-08-12T15:18:21.105Z,25.20
2022-08-12T15:20:52.515Z,25.00
2022-08-12T15:23:23.225Z,24.90
2022-08-12T15:25:59.881Z,24.70
2022-08-12T15:28:35.078Z,24.60
2022-08-12T15:31:21.292Z,24.50
2022-08-12T15:33:55.222Z,24.50
2022-08-12T15:36:54.232Z,24.50
2022-08-12T15:39:16.870Z,24.50
2022-08-12T15:41:50.354Z,24.60
2022-08-12T15:44:37.835Z,24.40
2022-08-12T15:47:08.325Z,24.40
2022-08-12T15:49:55.139Z,24.20
2022-08-12T15:52:29.283Z,24.10
2022-08-12T15:55:06.346Z,24.00
2022-08-12T15:57:54.920Z,23.90
2022-08-12T16:00:40.161Z,23.90
2022-08-12T16:03:13.622Z,24.00
2022-08-12T16:06:11.564Z,24.10
2022-08-12T16:08:36.608Z,24.10
2022-08-12T16:11:14.442Z,24.20
2022-08-12T16:13:44.408Z,24.10
2022-08-12T16:16:24.141Z,24.10
2022-08-12T16:19:01.910Z,24.10
2022-08-12T16:21:50.355Z,24.00
2022-08-12T16:24:20.803Z,23.90
2022-08-12T16:26:51.451Z,23.80
2022-08-12T16:29:52.154Z,23.70
2022-08-12T16:32:24.121Z,23.70
2022-08-12T16:34:56.024Z,23.60
2022-08-12T16:37:32.567Z,23.60
2022-08-12T16:40:14.349Z,23.50
2022-08-12T16:42:53.682Z,23.50
2022-08-12T16:45:58.188Z,23.40
2022-08-12T16:48:24.112Z,23.30
2022-08-12T16:51:06.091Z,23.20
2022-08-12T16:53:44.037Z,23.20
2022-08-12T16:56:17.380Z,23.20
2022-08-12T16:58:52.311Z,23.30
2022-08-12T17:01:20.723Z,23.30
2022-08-12T17:04:08.639Z,23.20
2022-08-12T17:06:43.336Z,23.10
2022-08-12T17:09:17.191Z,22.90
2022-08-12T17:11:49.055Z,22.80
2022-08-12T17:14:23.181Z,22.70
2022-08-12T17:16:55.030Z,22.60
2022-08-12T17:20:28.842Z,22.60
2022-08-12T17:22:15.428Z,22.50
2022-08-12T17:24:54.601Z,22.60
2022-08-12T17:27:30.828Z,22.70
2022-08-12T17:30:02.793Z,22.80
2022-08-12T17:32:34.955Z,23.00
2022-08-12T17:35:21.632Z,23.00
2022-08-12T17:38:03.674Z,23.00
2022-08-12T17:40:36.271Z,22.90
2022-08-12T17:43:51.779Z,22.70
2022-08-12T17:45:58.872Z,22.60
2022-08-12T17:48:34.812Z,22.40
2022-08-12T17:51:15.609Z,22.20
2022-08-12T17:54:05.658Z,22.00
2022-08-12T17:56:39.499Z,21.80
2022-08-12T18:02:00.466Z,21.50
2022-08-12T18:04:35.592Z,21.40
2022-08-12T18:07:06.220Z,21.20
2022-08-12T18:09:36.697Z,21.10
2022-08-12T18:12:26.643Z,20.90
2022-08-12T18:15:08.532Z,20.80
2022-08-12T18:17:41.107Z,20.60
2022-08-12T18:20:18.315Z,20.60
2022-08-12T18:22:55.811Z,20.40
2022-08-12T18:26:14.836Z,20.30
2022-08-12T18:28:35.933Z,20.20
2022-08-12T18:31:04.543Z,20.10
2022-08-12T18:33:43.947Z,19.90
2022-08-12T18:36:22.664Z,19.80
2022-08-12T18:38:56.236Z,19.70
2022-08-12T18:41:30.587Z,19.60
2022-08-12T18:44:12.299Z,19.50
2022-08-12T18:46:59.655Z,19.40
2022-08-12T18:49:40.692Z,19.40
2022-08-12T18:52:11.565Z,19.30
2022-08-12T18:54:54.137Z,19.20
2022-08-12T18:58:06.090Z,19.10
2022-08-12T19:00:21.172Z,19.00
2022-08-12T19:02:53.363Z,18.90
2022-08-12T19:05:24.797Z,18.90
2022-08-12T19:08:12.516Z,18.80
2022-08-12T19:10:42.562Z,18.70
2022-08-12T19:13:36.478Z,18.60
2022-08-12T19:16:10.903Z,18.50
2022-08-12T19:18:40.949Z,18.30
2022-08-12T19:21:16.681Z,18.10
2022-08-12T19:24:08.571Z,18.10
2022-08-12T19:26:37.330Z,17.90
2022-08-12T19:29:08.243Z,17.80
2022-08-12T19:31:58.339Z,17.80
2022-08-12T19:38:03.185Z,17.60
2022-08-12T19:40:31.046Z,17.70
2022-08-12T19:43:20.037Z,17.60
2022-08-12T19:45:56.775Z,17.60
2022-08-12T19:48:30.565Z,17.60
2022-08-12T19:51:08.824Z,17.50
2022-08-12T19:53:56.642Z,17.50
2022-08-12T19:56:28.044Z,17.50
2022-08-12T19:59:19.159Z,17.40
2022-08-12T20:02:02.691Z,17.30
2022-08-12T20:04:39.192Z,17.20
2022-08-12T20:07:23.960Z,17.20
2022-08-12T20:09:53.730Z,17.10
2022-08-12T20:12:30.887Z,17.10
2022-08-12T20:15:05.259Z,16.90
2022-08-12T20:17:35.983Z,16.90
2022-08-12T20:20:18.970Z,16.70
2022-08-12T20:22:49.026Z,16.70
2022-08-12T20:25:18.431Z,16.60
2022-08-12T20:28:05.211Z,16.50
2022-08-12T20:30:52.683Z,16.40
2022-08-12T20:33:32.803Z,16.40
2022-08-12T20:36:42.854Z,16.30
2022-08-12T20:39:05.490Z,16.20
2022-08-12T20:41:58.519Z,16.10
2022-08-12T20:44:27.109Z,16.00
2022-08-12T20:47:06.424Z,15.90
2022-08-12T20:49:45.918Z,15.70
2022-08-12T20:52:15.298Z,15.50
2022-08-12T20:54:52.370Z,15.40
2022-08-12T20:57:22.055Z,15.20
2022-08-12T20:59:51.512Z,15.10
2022-08-12T21:02:24.709Z,15.10
2022-08-12T21:05:20.390Z,15.10
2022-08-12T21:07:52.282Z,15.00
2022-08-12T21:10:20.874Z,15.00
2022-08-12T21:12:50.890Z,14.90
2022-08-12T21:15:30.110Z,14.80
2022-08-12T21:18:09.122Z,14.80
2022-08-12T21:20:39.702Z,14.70
2022-08-12T21:23:09.670Z,14.60
2022-08-12T21:25:45.157Z,14.60
2022-08-12T21:28:14.334Z,14.60
2022-08-12T21:31:11.761Z,14.50
2022-08-12T21:33:45.605Z,14.30
2022-08-12T21:36:22.532Z,14.20
2022-08-12T21:38:51.197Z,14.10
2022-08-12T21:41:21.735Z,14.00
2022-08-12T21:43:51.542Z,13.90
2022-08-12T21:46:34.737Z,13.90
2022-08-12T21:49:05.405Z,13.80
2022-08-12T21:51:49.010Z,13.80
2022-08-12T21:54:21.668Z,13.80
2022-08-12T21:56:53.531Z,13.80
2022-08-12T21:59:21.883Z,13.80
2022-08-12T22:01:50.166Z,13.80
2022-08-12T22:04:37.152Z,13.70
2022-08-12T22:07:08.401Z,13.70
2022-08-12T22:09:42.596Z,13.60
2022-08-12T22:12:29.959Z,13.40
2022-08-12T22:14:56.990Z,13.20
2022-08-12T22:17:33.917Z,13.20
2022-08-12T22:20:21.953Z,13.00
2022-08-12T22:22:53.742Z,12.90
2022-08-12T22:25:28.612Z,12.90
2022-08-12T22:28:16.198Z,12.90
2022-08-12T22:31:02.358Z,12.70
2022-08-12T22:33:30.692Z,12.60
2022-08-12T22:36:21.885Z,12.50
2022-08-12T22:38:57.083Z,12.40
2022-08-12T22:41:44.963Z,12.40
2022-08-12T22:44:32.563Z,12.40
2022-08-12T22:47:53.984Z,12.40
2022-08-12T22:50:28.922Z,12.30
2022-08-12T22:53:15.468Z,12.20
2022-08-12T22:58:40.207Z,12.00
2022-08-12T23:01:11.247Z,12.00
2022-08-12T23:03:49.727Z,12.10
2022-08-12T23:06:21.251Z,12.10
2022-08-12T23:08:51.064Z,12.10
2022-08-12T23:11:23.270Z,12.10
2022-08-12T23:13:54.643Z,12.10
2022-08-12T23:16:31.816Z,12.10
2022-08-12T23:19:17.810Z,12.00
2022-08-12T23:22:06.361Z,12.00
2022-08-12T23:24:56.405Z,12.00
2022-08-12T23:27:50.981Z,11.90
2022-08-12T23:30:32.408Z,11.80
2022-08-12T23:33:13.147Z,11.90
2022-08-12T23:35:53.795Z,11.90
2022-08-12T23:38:32.291Z,11.80
2022-08-12T23:41:02.661Z,11.70
2022-08-12T23:43:41.051Z,11.60
2022-08-12T23:46:18.579Z,11.60
2022-08-12T23:48:53.184Z,11.60
2022-08-12T23:51:26.099Z,11.50
2022-08-12T23:54:02.419Z,11.60
2022-08-12T23:56:35.142Z,11.60
2022-08-12T23:59:09.337Z,11.50
